sensor_id;sensor_type;location;lat;lon;timestamp;P1;durP1;ratioP1;P2;durP2;ratioP2
52244;SDS011;55759;51.586;-1.758;2023-10-09T00:07:23;21.65;;;12.80;;
52244;SDS011;55759;51.586;-1.758;2023-10-09T00:17:14;23.30;;;13.02;;
52244;SDS011;55759;51.586;-1.758;2023-10-09T00:20:25;20.95;;;12.77;;
52244;SDS011;55759;51.586;-1.758;2023-10-09T00:23:17;23.48;;;13.45;;
52244;SDS011;55759;51.586;-1.758;2023-10-09T00:26:24;22.92;;;14.05;;
52244;SDS011;55759;51.586;-1.758;2023-10-09T00:29:51;24.48;;;13.13;;
52244;SDS011;55759;51.586;-1.758;2023-10-09T00:32:35;23.17;;;13.80;;
52244;SDS011;55759;51.586;-1.758;2023-10-09T00:35:36;23.67;;;13.63;;
52244;SDS011;55759;51.586;-1.758;2023-10-09T00:41:54;29.85;;;14.68;;
52244;SDS011;55759;51.586;-1.758;2023-10-09T00:47:48;26.73;;;15.60;;
52244;SDS011;55759;51.586;-1.758;2023-10-09T01:04:36;30.25;;;16.17;;
52244;SDS011;55759;51.586;-1.758;2023-10-09T01:14:25;31.55;;;17.55;;
52244;SDS011;55759;51.586;-1.758;2023-10-09T01:20:52;30.70;;;17.45;;
52244;SDS011;55759;51.586;-1.758;2023-10-09T01:23:59;33.53;;;18.15;;
52244;SDS011;55759;51.586;-1.758;2023-10-09T01:29:53;32.88;;;17.92;;
52244;SDS011;55759;51.586;-1.758;2023-10-09T01:32:44;30.40;;;18.02;;
52244;SDS011;55759;51.586;-1.758;2023-10-09T01:35:31;29.60;;;17.35;;
52244;SDS011;55759;51.586;-1.758;2023-10-09T01:38:37;30.95;;;17.33;;
52244;SDS011;55759;51.586;-1.758;2023-10-09T01:41:34;28.67;;;16.73;;
52244;SDS011;55759;51.586;-1.758;2023-10-09T01:48:06;36.55;;;17.27;;
52244;SDS011;55759;51.586;-1.758;2023-10-09T01:51:12;30.65;;;16.90;;
52244;SDS011;55759;51.586;-1.758;2023-10-09T01:57:20;33.47;;;17.38;;
52244;SDS011;55759;51.586;-1.758;2023-10-09T02:00:22;30.45;;;16.58;;
52244;SDS011;55759;51.586;-1.758;2023-10-09T02:03:30;30.55;;;16.90;;
52244;SDS011;55759;51.586;-1.758;2023-10-09T02:09:19;31.23;;;16.67;;
52244;SDS011;55759;51.586;-1.758;2023-10-09T02:15:35;30.42;;;16.70;;
52244;SDS011;55759;51.586;-1.758;2023-10-09T02:21:55;31.00;;;15.80;;
52244;SDS011;55759;51.586;-1.758;2023-10-09T02:25:27;25.80;;;15.27;;
52244;SDS011;55759;51.586;-1.758;2023-10-09T02:28:23;27.23;;;15.55;;
52244;SDS011;55759;51.586;-1.758;2023-10-09T02:30:54;31.17;;;16.02;;
52244;SDS011;55759;51.586;-1.758;2023-10-09T02:33:48;26.83;;;14.70;;
52244;SDS011;55759;51.586;-1.758;2023-10-09T02:39:59;28.63;;;14.73;;
52244;SDS011;55759;51.586;-1.758;2023-10-09T02:42:48;24.23;;;15.02;;
52244;SDS011;55759;51.586;-1.758;2023-10-09T02:45:30;26.90;;;14.23;;
52244;SDS011;55759;51.586;-1.758;2023-10-09T02:48:11;27.58;;;14.00;;
52244;SDS011;55759;51.586;-1.758;2023-10-09T02:50:52;24.92;;;13.52;;
52244;SDS011;55759;51.586;-1.758;2023-10-09T02:53:34;24.52;;;13.63;;
52244;SDS011;55759;51.586;-1.758;2023-10-09T02:59:28;28.00;;;13.30;;
52244;SDS011;55759;51.586;-1.758;2023-10-09T03:05:05;25.83;;;12.85;;
52244;SDS011;55759;51.586;-1.758;2023-10-09T03:07:46;29.85;;;13.68;;
52244;SDS011;55759;51.586;-1.758;2023-10-09T03:10:21;25.58;;;13.68;;
52244;SDS011;55759;51.586;-1.758;2023-10-09T03:13:04;28.97;;;12.70;;
52244;SDS011;55759;51.586;-1.758;2023-10-09T03:16:14;26.48;;;12.75;;
52244;SDS011;55759;51.586;-1.758;2023-10-09T03:19:01;25.38;;;12.50;;
52244;SDS011;55759;51.586;-1.758;2023-10-09T03:24:43;20.67;;;12.00;;
52244;SDS011;55759;51.586;-1.758;2023-10-09T03:27:25;20.08;;;11.15;;
52244;SDS011;55759;51.586;-1.758;2023-10-09T03:30:22;21.90;;;11.00;;
52244;SDS011;55759;51.586;-1.758;2023-10-09T03:36:35;21.73;;;10.93;;
52244;SDS011;55759;51.586;-1.758;2023-10-09T03:42:19;18.35;;;11.27;;
52244;SDS011;55759;51.586;-1.758;2023-10-09T03:45:07;23.73;;;12.32;;
52244;SDS011;55759;51.586;-1.758;2023-10-09T03:47:56;22.95;;;11.68;;
52244;SDS011;55759;51.586;-1.758;2023-10-09T03:50:48;20.10;;;11.05;;
52244;SDS011;55759;51.586;-1.758;2023-10-09T03:54:13;19.73;;;11.38;;
52244;SDS011;55759;51.586;-1.758;2023-10-09T04:00:18;25.25;;;11.77;;
52244;SDS011;55759;51.586;-1.758;2023-10-09T04:02:55;20.88;;;12.00;;
52244;SDS011;55759;51.586;-1.758;2023-10-09T04:08:39;23.10;;;11.88;;
52244;SDS011;55759;51.586;-1.758;2023-10-09T04:11:48;21.63;;;12.07;;
52244;SDS011;55759;51.586;-1.758;2023-10-09T04:14:42;25.20;;;12.18;;
52244;SDS011;55759;51.586;-1.758;2023-10-09T04:17:14;26.10;;;12.05;;
52244;SDS011;55759;51.586;-1.758;2023-10-09T04:20:11;23.27;;;12.65;;
52244;SDS011;55759;51.586;-1.758;2023-10-09T04:23:14;22.42;;;11.73;;
52244;SDS011;55759;51.586;-1.758;2023-10-09T04:26:10;24.15;;;12.98;;
52244;SDS011;55759;51.586;-1.758;2023-10-09T04:28:44;23.13;;;12.38;;
52244;SDS011;55759;51.586;-1.758;2023-10-09T04:31:18;23.33;;;12.60;;
52244;SDS011;55759;51.586;-1.758;2023-10-09T04:36:56;27.02;;;12.65;;
52244;SDS011;55759;51.586;-1.758;2023-10-09T04:43:08;24.05;;;12.40;;
52244;SDS011;55759;51.586;-1.758;2023-10-09T04:45:51;22.05;;;12.55;;
52244;SDS011;55759;51.586;-1.758;2023-10-09T04:48:47;25.30;;;12.60;;
52244;SDS011;55759;51.586;-1.758;2023-10-09T04:51:46;23.67;;;12.85;;
52244;SDS011;55759;51.586;-1.758;2023-10-09T04:54:38;28.02;;;13.35;;
52244;SDS011;55759;51.586;-1.758;2023-10-09T04:57:28;23.17;;;12.95;;
52244;SDS011;55759;51.586;-1.758;2023-10-09T05:00:30;23.48;;;13.32;;
52244;SDS011;55759;51.586;-1.758;2023-10-09T05:03:18;23.70;;;12.70;;
52244;SDS011;55759;51.586;-1.758;2023-10-09T05:06:26;25.03;;;13.93;;
52244;SDS011;55759;51.586;-1.758;2023-10-09T05:09:26;23.92;;;14.43;;
52244;SDS011;55759;51.586;-1.758;2023-10-09T05:12:41;27.75;;;14.50;;
52244;SDS011;55759;51.586;-1.758;2023-10-09T05:15:22;27.10;;;14.25;;
52244;SDS011;55759;51.586;-1.758;2023-10-09T05:21:46;26.27;;;14.77;;
52244;SDS011;55759;51.586;-1.758;2023-10-09T05:30:38;29.45;;;15.77;;
52244;SDS011;55759;51.586;-1.758;2023-10-09T05:33:44;29.00;;;15.18;;
52244;SDS011;55759;51.586;-1.758;2023-10-09T05:36:34;28.92;;;15.32;;
52244;SDS011;55759;51.586;-1.758;2023-10-09T05:39:25;27.15;;;15.00;;
52244;SDS011;55759;51.586;-1.758;2023-10-09T05:42:35;27.80;;;15.48;;
52244;SDS011;55759;51.586;-1.758;2023-10-09T05:45:33;30.42;;;15.45;;
52244;SDS011;55759;51.586;-1.758;2023-10-09T05:49:01;26.88;;;15.52;;
52244;SDS011;55759;51.586;-1.758;2023-10-09T05:52:02;25.50;;;15.73;;
52244;SDS011;55759;51.586;-1.758;2023-10-09T05:55:00;29.23;;;16.73;;
52244;SDS011;55759;51.586;-1.758;2023-10-09T05:58:23;29.95;;;16.65;;
52244;SDS011;55759;51.586;-1.758;2023-10-09T06:01:27;32.42;;;16.35;;
52244;SDS011;55759;51.586;-1.758;2023-10-09T06:04:51;31.42;;;16.63;;
52244;SDS011;55759;51.586;-1.758;2023-10-09T06:11:26;32.63;;;17.80;;
52244;SDS011;55759;51.586;-1.758;2023-10-09T06:14:30;32.30;;;17.55;;
52244;SDS011;55759;51.586;-1.758;2023-10-09T06:17:53;56.63;;;31.70;;
52244;SDS011;55759;51.586;-1.758;2023-10-09T06:24:24;36.63;;;18.38;;
52244;SDS011;55759;51.586;-1.758;2023-10-09T06:27:28;32.83;;;18.55;;
52244;SDS011;55759;51.586;-1.758;2023-10-09T06:30:20;35.95;;;18.65;;
52244;SDS011;55759;51.586;-1.758;2023-10-09T07:09:30;39.33;;;20.52;;
52244;SDS011;55759;51.586;-1.758;2023-10-09T07:12:20;39.25;;;21.60;;
52244;SDS011;55759;51.586;-1.758;2023-10-09T07:18:51;62.42;;;28.67;;
52244;SDS011;55759;51.586;-1.758;2023-10-09T07:25:41;59.55;;;23.83;;
52244;SDS011;55759;51.586;-1.758;2023-10-09T07:32:10;65.90;;;26.15;;
52244;SDS011;55759;51.586;-1.758;2023-10-09T07:45:06;63.97;;;24.10;;
52244;SDS011;55759;51.586;-1.758;2023-10-09T08:16:06;71.28;;;27.85;;
52244;SDS011;55759;51.586;-1.758;2023-10-09T08:22:27;76.15;;;27.02;;
52244;SDS011;55759;51.586;-1.758;2023-10-09T08:25:30;66.75;;;26.00;;
52244;SDS011;55759;51.586;-1.758;2023-10-09T08:28:15;67.32;;;26.40;;
52244;SDS011;55759;51.586;-1.758;2023-10-09T08:52:05;66.28;;;27.83;;
52244;SDS011;55759;51.586;-1.758;2023-10-09T08:55:13;70.68;;;28.42;;
52244;SDS011;55759;51.586;-1.758;2023-10-09T08:58:30;64.00;;;27.02;;
52244;SDS011;55759;51.586;-1.758;2023-10-09T09:04:59;62.05;;;25.75;;
52244;SDS011;55759;51.586;-1.758;2023-10-09T09:08:04;62.72;;;25.70;;
52244;SDS011;55759;51.586;-1.758;2023-10-09T09:11:20;59.30;;;25.27;;
52244;SDS011;55759;51.586;-1.758;2023-10-09T09:14:26;60.20;;;25.58;;
52244;SDS011;55759;51.586;-1.758;2023-10-09T09:41:45;55.15;;;24.73;;
52244;SDS011;55759;51.586;-1.758;2023-10-09T09:48:22;51.15;;;24.23;;
52244;SDS011;55759;51.586;-1.758;2023-10-09T09:51:11;49.63;;;22.35;;
52244;SDS011;55759;51.586;-1.758;2023-10-09T10:11:59;39.63;;;19.90;;
52244;SDS011;55759;51.586;-1.758;2023-10-09T10:25:53;37.75;;;18.25;;
52244;SDS011;55759;51.586;-1.758;2023-10-09T10:39:05;47.58;;;27.58;;
52244;SDS011;55759;51.586;-1.758;2023-10-09T10:46:05;34.92;;;18.38;;
52244;SDS011;55759;51.586;-1.758;2023-10-09T10:49:05;39.45;;;20.33;;
52244;SDS011;55759;51.586;-1.758;2023-10-09T10:51:55;34.92;;;18.88;;
52244;SDS011;55759;51.586;-1.758;2023-10-09T10:54:31;30.83;;;17.67;;
52244;SDS011;55759;51.586;-1.758;2023-10-09T10:56:57;33.13;;;16.65;;
52244;SDS011;55759;51.586;-1.758;2023-10-09T11:02:39;30.20;;;16.70;;
52244;SDS011;55759;51.586;-1.758;2023-10-09T11:05:13;27.70;;;15.40;;
52244;SDS011;55759;51.586;-1.758;2023-10-09T11:08:08;24.60;;;14.63;;
52244;SDS011;55759;51.586;-1.758;2023-10-09T11:11:15;28.80;;;15.63;;
52244;SDS011;55759;51.586;-1.758;2023-10-09T11:13:44;34.42;;;17.42;;
52244;SDS011;55759;51.586;-1.758;2023-10-09T11:16:29;33.08;;;17.67;;
52244;SDS011;55759;51.586;-1.758;2023-10-09T11:19:10;31.63;;;18.27;;
52244;SDS011;55759;51.586;-1.758;2023-10-09T11:21:52;26.77;;;16.10;;
52244;SDS011;55759;51.586;-1.758;2023-10-09T11:24:39;26.75;;;14.95;;
52244;SDS011;55759;51.586;-1.758;2023-10-09T11:27:11;24.75;;;13.15;;
52244;SDS011;55759;51.586;-1.758;2023-10-09T11:30:03;21.88;;;11.90;;
52244;SDS011;55759;51.586;-1.758;2023-10-09T11:33:02;20.00;;;11.65;;
52244;SDS011;55759;51.586;-1.758;2023-10-09T11:35:39;22.70;;;10.18;;
52244;SDS011;55759;51.586;-1.758;2023-10-09T11:38:10;21.10;;;10.45;;
52244;SDS011;55759;51.586;-1.758;2023-10-09T11:40:49;18.25;;;10.10;;
52244;SDS011;55759;51.586;-1.758;2023-10-09T11:43:44;17.90;;;9.68;;
52244;SDS011;55759;51.586;-1.758;2023-10-09T11:46:26;18.20;;;10.20;;
52244;SDS011;55759;51.586;-1.758;2023-10-09T11:49:16;20.45;;;11.25;;
52244;SDS011;55759;51.586;-1.758;2023-10-09T11:51:44;21.17;;;9.88;;
52244;SDS011;55759;51.586;-1.758;2023-10-09T11:54:34;19.23;;;9.60;;
52244;SDS011;55759;51.586;-1.758;2023-10-09T11:57:06;18.05;;;9.35;;
52244;SDS011;55759;51.586;-1.758;2023-10-09T11:59:33;18.92;;;10.20;;
52244;SDS011;55759;51.586;-1.758;2023-10-09T12:02:03;18.95;;;9.88;;
52244;SDS011;55759;51.586;-1.758;2023-10-09T12:04:38;18.00;;;9.82;;
52244;SDS011;55759;51.586;-1.758;2023-10-09T12:07:09;18.40;;;10.40;;
52244;SDS011;55759;51.586;-1.758;2023-10-09T12:09:35;18.30;;;10.35;;
52244;SDS011;55759;51.586;-1.758;2023-10-09T12:12:05;19.15;;;9.90;;
52244;SDS011;55759;51.586;-1.758;2023-10-09T12:14:32;27.90;;;16.55;;
52244;SDS011;55759;51.586;-1.758;2023-10-09T12:17:15;20.63;;;11.32;;
52244;SDS011;55759;51.586;-1.758;2023-10-09T12:22:32;20.23;;;9.85;;
52244;SDS011;55759;51.586;-1.758;2023-10-09T12:24:58;18.63;;;9.43;;
52244;SDS011;55759;51.586;-1.758;2023-10-09T12:29:53;16.70;;;8.45;;
52244;SDS011;55759;51.586;-1.758;2023-10-09T12:32:29;16.58;;;8.80;;
52244;SDS011;55759;51.586;-1.758;2023-10-09T12:35:01;21.25;;;10.65;;
52244;SDS011;55759;51.586;-1.758;2023-10-09T12:39:56;21.98;;;12.15;;
52244;SDS011;55759;51.586;-1.758;2023-10-09T12:42:22;19.45;;;9.60;;
52244;SDS011;55759;51.586;-1.758;2023-10-09T12:47:34;17.55;;;9.90;;
52244;SDS011;55759;51.586;-1.758;2023-10-09T12:50:05;22.50;;;9.75;;
52244;SDS011;55759;51.586;-1.758;2023-10-09T12:52:38;20.42;;;11.90;;
52244;SDS011;55759;51.586;-1.758;2023-10-09T12:55:05;17.98;;;9.20;;
52244;SDS011;55759;51.586;-1.758;2023-10-09T12:57:35;14.57;;;8.68;;
52244;SDS011;55759;51.586;-1.758;2023-10-09T13:00:02;22.27;;;9.45;;
52244;SDS011;55759;51.586;-1.758;2023-10-09T13:02:36;16.70;;;8.25;;
52244;SDS011;55759;51.586;-1.758;2023-10-09T13:05:02;13.25;;;7.32;;
52244;SDS011;55759;51.586;-1.758;2023-10-09T13:07:32;14.40;;;7.43;;
52244;SDS011;55759;51.586;-1.758;2023-10-09T13:16:22;15.52;;;6.03;;
52244;SDS011;55759;51.586;-1.758;2023-10-09T13:19:15;10.70;;;5.75;;
52244;SDS011;55759;51.586;-1.758;2023-10-09T13:21:52;13.77;;;7.72;;
52244;SDS011;55759;51.586;-1.758;2023-10-09T13:24:59;12.27;;;6.70;;
52244;SDS011;55759;51.586;-1.758;2023-10-09T13:28:10;14.02;;;6.22;;
52244;SDS011;55759;51.586;-1.758;2023-10-09T13:30:37;10.95;;;5.85;;
52244;SDS011;55759;51.586;-1.758;2023-10-09T13:33:29;11.05;;;5.80;;
52244;SDS011;55759;51.586;-1.758;2023-10-09T13:36:21;10.98;;;6.43;;
52244;SDS011;55759;51.586;-1.758;2023-10-09T13:39:03;13.00;;;6.20;;
52244;SDS011;55759;51.586;-1.758;2023-10-09T13:41:48;11.68;;;6.35;;
52244;SDS011;55759;51.586;-1.758;2023-10-09T13:44:34;12.32;;;6.97;;
52244;SDS011;55759;51.586;-1.758;2023-10-09T13:47:11;11.43;;;8.00;;
52244;SDS011;55759;51.586;-1.758;2023-10-09T13:49:44;14.75;;;7.70;;
52244;SDS011;55759;51.586;-1.758;2023-10-09T13:52:14;11.68;;;6.50;;
52244;SDS011;55759;51.586;-1.758;2023-10-09T13:54:43;13.20;;;7.70;;
52244;SDS011;55759;51.586;-1.758;2023-10-09T13:57:15;19.27;;;6.82;;
52244;SDS011;55759;51.586;-1.758;2023-10-09T13:59:47;32.67;;;7.30;;
52244;SDS011;55759;51.586;-1.758;2023-10-09T14:02:16;13.40;;;5.85;;
52244;SDS011;55759;51.586;-1.758;2023-10-09T14:04:43;11.40;;;5.88;;
52244;SDS011;55759;51.586;-1.758;2023-10-09T14:07:11;11.27;;;6.38;;
52244;SDS011;55759;51.586;-1.758;2023-10-09T14:09:41;18.70;;;6.38;;
52244;SDS011;55759;51.586;-1.758;2023-10-09T14:12:08;12.18;;;6.88;;
52244;SDS011;55759;51.586;-1.758;2023-10-09T14:14:44;11.98;;;7.10;;
52244;SDS011;55759;51.586;-1.758;2023-10-09T14:17:16;14.15;;;7.03;;
52244;SDS011;55759;51.586;-1.758;2023-10-09T14:19:59;15.32;;;6.90;;
52244;SDS011;55759;51.586;-1.758;2023-10-09T14:22:44;12.75;;;6.95;;
52244;SDS011;55759;51.586;-1.758;2023-10-09T14:25:13;16.63;;;10.35;;
52244;SDS011;55759;51.586;-1.758;2023-10-09T14:27:46;15.23;;;7.10;;
52244;SDS011;55759;51.586;-1.758;2023-10-09T14:30:15;14.50;;;7.18;;
52244;SDS011;55759;51.586;-1.758;2023-10-09T14:32:48;13.63;;;6.63;;
52244;SDS011;55759;51.586;-1.758;2023-10-09T14:35:20;17.38;;;7.45;;
52244;SDS011;55759;51.586;-1.758;2023-10-09T14:37:51;12.75;;;6.45;;
52244;SDS011;55759;51.586;-1.758;2023-10-09T14:40:18;17.63;;;6.72;;
52244;SDS011;55759;51.586;-1.758;2023-10-09T14:42:55;13.38;;;5.88;;
52244;SDS011;55759;51.586;-1.758;2023-10-09T14:49:23;13.93;;;5.45;;
52244;SDS011;55759;51.586;-1.758;2023-10-09T14:54:49;15.45;;;5.50;;
52244;SDS011;55759;51.586;-1.758;2023-10-09T15:07:57;24.13;;;8.73;;
52244;SDS011;55759;51.586;-1.758;2023-10-09T15:35:27;13.45;;;5.88;;
52244;SDS011;55759;51.586;-1.758;2023-10-09T15:38:07;16.27;;;5.40;;
52244;SDS011;55759;51.586;-1.758;2023-10-09T15:43:57;14.27;;;5.82;;
52244;SDS011;55759;51.586;-1.758;2023-10-09T18:28:58;122.75;;;66.97;;
52244;SDS011;55759;51.586;-1.758;2023-10-09T18:45:18;53.70;;;31.92;;
52244;SDS011;55759;51.586;-1.758;2023-10-09T18:48:03;51.08;;;30.80;;
52244;SDS011;55759;51.586;-1.758;2023-10-09T18:57:11;43.67;;;23.60;;
52244;SDS011;55759;51.586;-1.758;2023-10-09T18:59:40;46.25;;;29.42;;
52244;SDS011;55759;51.586;-1.758;2023-10-09T19:05:39;51.22;;;32.80;;
52244;SDS011;55759;51.586;-1.758;2023-10-09T19:08:09;46.03;;;27.75;;
52244;SDS011;55759;51.586;-1.758;2023-10-09T19:11:06;39.78;;;24.00;;
52244;SDS011;55759;51.586;-1.758;2023-10-09T19:23:58;40.08;;;23.45;;
52244;SDS011;55759;51.586;-1.758;2023-10-09T19:27:08;38.72;;;20.58;;
52244;SDS011;55759;51.586;-1.758;2023-10-09T19:29:44;37.58;;;19.10;;
52244;SDS011;55759;51.586;-1.758;2023-10-09T19:32:12;33.60;;;18.45;;
52244;SDS011;55759;51.586;-1.758;2023-10-09T19:37:07;29.83;;;16.33;;
52244;SDS011;55759;51.586;-1.758;2023-10-09T19:39:33;28.08;;;16.13;;
52244;SDS011;55759;51.586;-1.758;2023-10-09T19:42:01;27.67;;;16.13;;
52244;SDS011;55759;51.586;-1.758;2023-10-09T19:44:27;31.48;;;15.43;;
52244;SDS011;55759;51.586;-1.758;2023-10-09T19:46:54;28.40;;;15.07;;
52244;SDS011;55759;51.586;-1.758;2023-10-09T19:49:22;26.10;;;14.32;;
52244;SDS011;55759;51.586;-1.758;2023-10-09T19:52:11;25.02;;;14.02;;
52244;SDS011;55759;51.586;-1.758;2023-10-09T19:54:37;28.02;;;15.05;;
52244;SDS011;55759;51.586;-1.758;2023-10-09T19:57:08;24.77;;;14.25;;
52244;SDS011;55759;51.586;-1.758;2023-10-09T20:02:05;25.33;;;13.35;;
52244;SDS011;55759;51.586;-1.758;2023-10-09T20:04:31;24.45;;;13.52;;
52244;SDS011;55759;51.586;-1.758;2023-10-09T20:06:58;23.90;;;14.20;;
52244;SDS011;55759;51.586;-1.758;2023-10-09T20:09:29;23.33;;;13.88;;
52244;SDS011;55759;51.586;-1.758;2023-10-09T20:11:58;25.85;;;14.50;;
52244;SDS011;55759;51.586;-1.758;2023-10-09T20:14:27;27.00;;;14.00;;
52244;SDS011;55759;51.586;-1.758;2023-10-09T20:16:53;27.73;;;14.68;;
52244;SDS011;55759;51.586;-1.758;2023-10-09T20:19:24;23.20;;;13.57;;
52244;SDS011;55759;51.586;-1.758;2023-10-09T20:21:50;25.55;;;13.13;;
52244;SDS011;55759;51.586;-1.758;2023-10-09T20:24:19;28.08;;;14.10;;
52244;SDS011;55759;51.586;-1.758;2023-10-09T20:26:57;27.58;;;14.18;;
52244;SDS011;55759;51.586;-1.758;2023-10-09T20:32:56;24.83;;;13.05;;
52244;SDS011;55759;51.586;-1.758;2023-10-09T20:35:35;24.80;;;12.82;;
52244;SDS011;55759;51.586;-1.758;2023-10-09T20:38:04;24.23;;;12.48;;
52244;SDS011;55759;51.586;-1.758;2023-10-09T20:40:34;26.92;;;12.45;;
52244;SDS011;55759;51.586;-1.758;2023-10-09T20:43:11;23.08;;;12.13;;
52244;SDS011;55759;51.586;-1.758;2023-10-09T20:45:38;21.33;;;11.73;;
52244;SDS011;55759;51.586;-1.758;2023-10-09T20:48:13;24.60;;;12.03;;
52244;SDS011;55759;51.586;-1.758;2023-10-09T20:50:49;24.33;;;12.60;;
52244;SDS011;55759;51.586;-1.758;2023-10-09T20:53:25;22.33;;;12.60;;
52244;SDS011;55759;51.586;-1.758;2023-10-09T20:56:04;22.92;;;12.02;;
52244;SDS011;55759;51.586;-1.758;2023-10-09T20:58:53;18.27;;;10.60;;
52244;SDS011;55759;51.586;-1.758;2023-10-09T21:01:30;19.85;;;10.27;;
52244;SDS011;55759;51.586;-1.758;2023-10-09T21:03:56;22.40;;;10.35;;
52244;SDS011;55759;51.586;-1.758;2023-10-09T21:06:25;21.13;;;10.73;;
52244;SDS011;55759;51.586;-1.758;2023-10-09T21:08:53;18.95;;;10.23;;
52244;SDS011;55759;51.586;-1.758;2023-10-09T21:11:22;24.42;;;10.63;;
52244;SDS011;55759;51.586;-1.758;2023-10-09T21:13:50;19.52;;;9.88;;
52244;SDS011;55759;51.586;-1.758;2023-10-09T21:16:19;20.10;;;10.15;;
52244;SDS011;55759;51.586;-1.758;2023-10-09T21:19:08;18.95;;;10.70;;
52244;SDS011;55759;51.586;-1.758;2023-10-09T21:21:33;32.00;;;16.00;;
52244;SDS011;55759;51.586;-1.758;2023-10-09T21:23:59;24.67;;;14.88;;
52244;SDS011;55759;51.586;-1.758;2023-10-09T21:26:25;31.25;;;17.38;;
52244;SDS011;55759;51.586;-1.758;2023-10-09T21:28:51;21.98;;;10.95;;
52244;SDS011;55759;51.586;-1.758;2023-10-09T21:31:20;24.63;;;11.77;;
52244;SDS011;55759;51.586;-1.758;2023-10-09T21:33:47;21.90;;;11.63;;
52244;SDS011;55759;51.586;-1.758;2023-10-09T21:36:16;33.20;;;19.52;;
52244;SDS011;55759;51.586;-1.758;2023-10-09T21:38:43;22.55;;;11.15;;
52244;SDS011;55759;51.586;-1.758;2023-10-09T21:41:12;22.83;;;11.50;;
52244;SDS011;55759;51.586;-1.758;2023-10-09T21:43:41;21.45;;;12.43;;
52244;SDS011;55759;51.586;-1.758;2023-10-09T21:46:16;21.63;;;11.82;;
52244;SDS011;55759;51.586;-1.758;2023-10-09T21:48:42;22.05;;;12.60;;
52244;SDS011;55759;51.586;-1.758;2023-10-09T21:51:09;23.55;;;13.32;;
52244;SDS011;55759;51.586;-1.758;2023-10-09T21:53:38;27.95;;;14.60;;
52244;SDS011;55759;51.586;-1.758;2023-10-09T21:56:07;26.10;;;13.63;;
52244;SDS011;55759;51.586;-1.758;2023-10-09T21:58:35;26.67;;;14.65;;
52244;SDS011;55759;51.586;-1.758;2023-10-09T22:01:01;25.83;;;14.93;;
52244;SDS011;55759;51.586;-1.758;2023-10-09T22:03:28;34.80;;;15.40;;
52244;SDS011;55759;51.586;-1.758;2023-10-09T22:05:56;25.52;;;14.82;;
52244;SDS011;55759;51.586;-1.758;2023-10-09T22:08:23;24.10;;;14.48;;
52244;SDS011;55759;51.586;-1.758;2023-10-09T22:10:49;24.13;;;14.57;;
52244;SDS011;55759;51.586;-1.758;2023-10-09T22:13:15;26.85;;;14.73;;
52244;SDS011;55759;51.586;-1.758;2023-10-09T22:15:43;28.67;;;14.70;;
52244;SDS011;55759;51.586;-1.758;2023-10-09T22:18:10;28.25;;;16.85;;
52244;SDS011;55759;51.586;-1.758;2023-10-09T22:20:45;29.92;;;15.88;;
52244;SDS011;55759;51.586;-1.758;2023-10-09T22:23:11;30.77;;;16.58;;
52244;SDS011;55759;51.586;-1.758;2023-10-09T22:25:39;33.97;;;17.20;;
52244;SDS011;55759;51.586;-1.758;2023-10-09T22:30:34;33.42;;;17.40;;
52244;SDS011;55759;51.586;-1.758;2023-10-09T22:33:01;27.80;;;16.52;;
52244;SDS011;55759;51.586;-1.758;2023-10-09T22:35:31;33.17;;;17.92;;
52244;SDS011;55759;51.586;-1.758;2023-10-09T22:38:02;34.50;;;18.35;;
52244;SDS011;55759;51.586;-1.758;2023-10-09T22:40:37;34.28;;;18.77;;
52244;SDS011;55759;51.586;-1.758;2023-10-09T22:43:06;32.55;;;18.27;;
52244;SDS011;55759;51.586;-1.758;2023-10-09T22:45:39;38.05;;;19.88;;
52244;SDS011;55759;51.586;-1.758;2023-10-09T22:48:13;33.65;;;19.45;;
52244;SDS011;55759;51.586;-1.758;2023-10-09T22:50:54;37.85;;;20.92;;
52244;SDS011;55759;51.586;-1.758;2023-10-09T22:53:38;35.83;;;20.27;;
52244;SDS011;55759;51.586;-1.758;2023-10-09T22:56:05;36.88;;;20.27;;
52244;SDS011;55759;51.586;-1.758;2023-10-09T22:58:32;38.55;;;20.60;;
52244;SDS011;55759;51.586;-1.758;2023-10-09T23:01:05;38.60;;;20.77;;
52244;SDS011;55759;51.586;-1.758;2023-10-09T23:03:40;41.88;;;22.85;;
52244;SDS011;55759;51.586;-1.758;2023-10-09T23:06:23;43.55;;;23.63;;
52244;SDS011;55759;51.586;-1.758;2023-10-09T23:08:58;41.85;;;23.55;;
52244;SDS011;55759;51.586;-1.758;2023-10-09T23:11:37;43.15;;;23.02;;
52244;SDS011;55759;51.586;-1.758;2023-10-09T23:14:03;43.80;;;23.23;;
52244;SDS011;55759;51.586;-1.758;2023-10-09T23:16:49;40.58;;;22.23;;
52244;SDS011;55759;51.586;-1.758;2023-10-09T23:19:24;47.28;;;24.88;;
52244;SDS011;55759;51.586;-1.758;2023-10-09T23:22:09;46.50;;;25.70;;
52244;SDS011;55759;51.586;-1.758;2023-10-09T23:24:38;44.92;;;25.30;;
52244;SDS011;55759;51.586;-1.758;2023-10-09T23:27:16;46.47;;;24.05;;
52244;SDS011;55759;51.586;-1.758;2023-10-09T23:30:20;44.58;;;25.30;;
52244;SDS011;55759;51.586;-1.758;2023-10-09T23:32:58;44.97;;;25.33;;
52244;SDS011;55759;51.586;-1.758;2023-10-09T23:35:33;43.15;;;24.80;;
52244;SDS011;55759;51.586;-1.758;2023-10-09T23:38:10;44.80;;;24.40;;
52244;SDS011;55759;51.586;-1.758;2023-10-09T23:40:46;51.30;;;26.75;;
52244;SDS011;55759;51.586;-1.758;2023-10-09T23:43:13;47.60;;;25.70;;
52244;SDS011;55759;51.586;-1.758;2023-10-09T23:45:55;49.25;;;25.20;;
52244;SDS011;55759;51.586;-1.758;2023-10-09T23:48:28;48.50;;;26.23;;
52244;SDS011;55759;51.586;-1.758;2023-10-09T23:51:00;52.57;;;27.10;;
52244;SDS011;55759;51.586;-1.758;2023-10-09T23:53:30;48.97;;;26.20;;
52244;SDS011;55759;51.586;-1.758;2023-10-09T23:56:02;47.65;;;26.50;;
